createdAt,value
2022-11-23T00:03:30.859Z,1.23
2022-11-23T00:09:34.343Z,1.15
2022-11-23T00:15:42.123Z,1.27
2022-11-23T00:21:45.470Z,1.10
2022-11-23T00:27:48.983Z,1.20
2022-11-23T00:33:54.556Z,1.20
2022-11-23T00:39:57.921Z,1.17
2022-11-23T00:46:05.395Z,1.17
2022-11-23T00:52:10.074Z,1.23
2022-11-23T00:58:13.493Z,1.20
2022-11-23T01:04:17.156Z,1.13
2022-11-23T01:10:21.906Z,1.75
2022-11-23T01:16:26.492Z,1.60
2022-11-23T01:22:29.883Z,1.67
2022-11-23T01:28:34.626Z,1.35
2022-11-23T01:34:38.034Z,1.40
2022-11-23T01:40:42.364Z,1.45
2022-11-23T01:46:47.262Z,1.90
2022-11-23T01:52:50.846Z,1.05
2022-11-23T01:58:55.628Z,1.38
2022-11-23T02:05:02.172Z,2.33
2022-11-23T02:11:05.692Z,2.92
2022-11-23T02:17:09.726Z,3.50
2022-11-23T02:23:17.583Z,2.58
2022-11-23T02:29:24.261Z,4.53
2022-11-23T02:35:27.786Z,3.42
2022-11-23T02:41:36.240Z,1.88
2022-11-23T02:47:41.226Z,2.88
2022-11-23T02:53:44.615Z,2.22
2022-11-23T02:59:47.915Z,1.63
2022-11-23T03:05:52.734Z,2.90
2022-11-23T03:11:56.239Z,3.28
2022-11-23T03:17:59.589Z,2.45
2022-11-23T03:24:04.287Z,1.30
2022-11-23T03:30:09.507Z,2.15
2022-11-23T03:36:12.986Z,2.75
2022-11-23T03:42:17.738Z,2.15
2022-11-23T03:48:21.940Z,2.88
2022-11-23T03:54:25.547Z,3.83
2022-11-23T04:00:30.699Z,2.28
2022-11-23T04:06:34.832Z,2.75
2022-11-23T04:12:38.189Z,3.20
2022-11-23T04:18:43.046Z,3.38
2022-11-23T04:24:46.649Z,5.05
2022-11-23T04:30:50.042Z,4.38
2022-11-23T04:36:54.706Z,2.60
2022-11-23T04:43:01.597Z,2.45
2022-11-23T04:49:05.454Z,1.90
2022-11-23T04:55:10.367Z,1.70
2022-11-23T05:01:14.014Z,1.83
2022-11-23T05:07:17.640Z,1.75
2022-11-23T05:13:22.425Z,1.60
2022-11-23T05:19:25.765Z,1.52
2022-11-23T05:25:29.131Z,2.10
2022-11-23T05:31:34.059Z,2.10
2022-11-23T05:37:37.526Z,2.22
2022-11-23T05:43:40.877Z,1.77
2022-11-23T05:49:45.819Z,2.15
2022-11-23T05:55:49.385Z,4.70
2022-11-23T06:01:52.744Z,2.30
2022-11-23T06:07:57.589Z,2.17
2022-11-23T06:14:01.445Z,2.28
2022-11-23T06:20:05.361Z,2.10
2022-11-23T06:26:10.053Z,2.17
2022-11-23T06:32:13.655Z,5.35
2022-11-23T06:38:17.176Z,2.10
2022-11-23T06:44:21.907Z,2.22
2022-11-23T06:50:25.261Z,2.30
2022-11-23T06:56:28.649Z,2.10
2022-11-23T07:02:33.397Z,2.03
2022-11-23T07:08:39.874Z,2.25
2022-11-23T07:14:43.974Z,2.13
2022-11-23T07:20:48.683Z,3.40
2022-11-23T07:26:52.182Z,3.83
2022-11-23T07:32:55.798Z,3.20
2022-11-23T07:39:00.955Z,3.10
2022-11-23T07:45:04.721Z,3.58
2022-11-23T07:51:08.528Z,3.15
2022-11-23T07:57:13.375Z,3.25
2022-11-23T08:03:32.352Z,3.40
2022-11-23T08:09:35.823Z,3.70
2022-11-23T08:15:40.542Z,3.83
2022-11-23T08:21:43.925Z,3.08
2022-11-23T08:27:47.337Z,3.67
2022-11-23T08:33:52.343Z,3.47
2022-11-23T08:39:55.730Z,3.65
2022-11-23T08:46:04.692Z,5.17
2022-11-23T08:52:11.561Z,5.15
2022-11-23T08:58:15.096Z,3.83
2022-11-23T09:04:20.913Z,3.90
2022-11-23T09:10:26.004Z,3.53
2022-11-23T09:16:33.665Z,4.38
2022-11-23T09:22:37.654Z,3.67
2022-11-23T09:28:44.943Z,4.60
2022-11-23T09:34:48.512Z,5.13
2022-11-23T09:40:57.767Z,5.85
2022-11-23T09:47:08.658Z,3.55
2022-11-23T09:53:15.095Z,4.32
2022-11-23T09:59:24.573Z,9.40
2022-11-23T10:05:33.523Z,5.55
2022-11-23T10:11:46.195Z,4.30
2022-11-23T10:18:07.751Z,3.03
2022-11-23T10:24:19.288Z,3.08
2022-11-23T10:30:22.944Z,2.60
2022-11-23T10:36:26.287Z,2.67
2022-11-23T10:42:32.784Z,1.83
2022-11-23T10:48:37.553Z,2.25
2022-11-23T10:54:42.283Z,2.20
2022-11-23T11:00:47.066Z,2.13
2022-11-23T11:06:50.454Z,2.58
2022-11-23T11:12:54.179Z,2.40
2022-11-23T11:18:59.435Z,2.70
2022-11-23T11:25:03.233Z,2.83
2022-11-23T11:31:17.343Z,3.70
2022-11-23T11:37:28.379Z,2.38
2022-11-23T11:43:39.463Z,2.00
2022-11-23T11:49:46.137Z,2.63
2022-11-23T11:55:54.870Z,2.60
2022-11-23T12:02:02.393Z,2.20
2022-11-23T12:08:08.681Z,1.95
2022-11-23T12:14:15.021Z,2.10
2022-11-23T12:20:21.798Z,2.22
2022-11-23T12:26:28.922Z,2.17
2022-11-23T12:32:39.873Z,2.13
2022-11-23T12:38:49.261Z,3.25
2022-11-23T12:45:00.744Z,2.33
2022-11-23T12:51:10.119Z,1.58
2022-11-23T12:57:17.081Z,1.83
2022-11-23T13:03:35.424Z,1.70
2022-11-23T13:09:57.702Z,1.50
2022-11-23T13:16:18.763Z,1.70
2022-11-23T13:22:23.552Z,2.15
2022-11-23T13:28:31.932Z,2.15
2022-11-23T13:34:51.102Z,1.58
2022-11-23T13:40:54.598Z,1.77
2022-11-23T13:47:01.256Z,1.83
2022-11-23T13:53:05.386Z,2.17
2022-11-23T13:59:29.645Z,1.88
2022-11-23T14:05:54.361Z,2.03
2022-11-23T14:12:04.240Z,1.88
2022-11-23T14:18:26.832Z,1.52
2022-11-23T14:24:51.060Z,1.63
2022-11-23T14:31:01.323Z,1.83
2022-11-23T14:37:08.910Z,1.80
2022-11-23T14:43:16.567Z,1.60
2022-11-23T14:49:20.182Z,1.42
2022-11-23T14:55:25.012Z,1.33
2022-11-23T15:01:30.134Z,1.50
2022-11-23T15:07:41.586Z,1.50
2022-11-23T15:13:46.165Z,2.10
2022-11-23T15:19:57.493Z,2.00
2022-11-23T15:26:04.038Z,2.03
2022-11-23T15:32:30.704Z,7.18
2022-11-23T15:38:35.859Z,2.40
2022-11-23T15:44:40.237Z,2.30
2022-11-23T15:50:49.154Z,2.70
2022-11-23T15:56:58.513Z,3.13
2022-11-23T16:03:16.758Z,2.80
2022-11-23T16:09:53.541Z,4.70
2022-11-23T16:16:01.917Z,4.55
2022-11-23T16:22:07.793Z,3.75
2022-11-23T16:28:18.506Z,4.13
2022-11-23T16:34:23.857Z,5.95
2022-11-23T16:40:27.230Z,6.80
2022-11-23T16:46:30.614Z,7.18
2022-11-23T16:52:35.338Z,6.85
2022-11-23T16:58:38.766Z,6.27
2022-11-23T17:04:42.431Z,4.07
2022-11-23T17:10:47.378Z,5.18
2022-11-23T17:16:51.168Z,6.15
2022-11-23T17:23:00.032Z,8.13
2022-11-23T17:29:07.027Z,6.63
2022-11-23T17:35:10.915Z,11.20
2022-11-23T17:41:14.393Z,7.30
2022-11-23T17:47:23.067Z,9.80
2022-11-23T17:53:27.463Z,14.88
2022-11-23T17:59:31.145Z,8.43
2022-11-23T18:05:36.113Z,13.88
2022-11-23T18:11:40.079Z,11.60
2022-11-23T18:17:43.467Z,11.52
2022-11-23T18:23:48.216Z,8.63
2022-11-23T18:29:51.687Z,6.30
2022-11-23T18:35:56.491Z,4.78
2022-11-23T18:42:05.934Z,5.82
2022-11-23T18:48:10.198Z,5.25
2022-11-23T18:54:13.616Z,4.97
2022-11-23T19:00:19.381Z,7.60
2022-11-23T19:06:24.435Z,7.15
2022-11-23T19:12:30.369Z,6.88
2022-11-23T19:18:35.374Z,5.40
2022-11-23T19:24:38.856Z,6.38
2022-11-23T19:30:42.345Z,5.43
2022-11-23T19:36:47.341Z,5.60
2022-11-23T19:42:50.867Z,3.50
2022-11-23T19:48:57.448Z,3.40
2022-11-23T19:55:02.343Z,3.22
2022-11-23T20:01:07.403Z,3.92
2022-11-23T20:07:12.441Z,3.10
2022-11-23T20:13:18.027Z,3.17
2022-11-23T20:19:21.478Z,3.72
2022-11-23T20:25:24.852Z,3.38
2022-11-23T20:31:30.453Z,3.28
2022-11-23T20:37:34.869Z,3.25
2022-11-23T20:43:38.522Z,3.65
2022-11-23T20:49:43.390Z,2.67
2022-11-23T20:55:46.810Z,3.20
2022-11-23T21:01:50.288Z,2.60
2022-11-23T21:07:55.554Z,2.78
2022-11-23T21:14:13.941Z,3.00
2022-11-23T21:20:20.486Z,2.65
2022-11-23T21:26:25.539Z,2.55
2022-11-23T21:32:28.931Z,2.53
2022-11-23T21:38:35.257Z,2.40
2022-11-23T21:44:40.243Z,2.80
2022-11-23T21:50:43.816Z,2.13
2022-11-23T21:56:48.572Z,2.15
2022-11-23T22:02:53.400Z,2.78
2022-11-23T22:08:57.971Z,2.42
2022-11-23T22:15:01.575Z,2.88
2022-11-23T22:21:06.714Z,3.83
2022-11-23T22:27:10.134Z,2.30
2022-11-23T22:33:13.667Z,2.30
2022-11-23T22:39:18.549Z,2.42
2022-11-23T22:45:23.117Z,2.25
2022-11-23T22:51:27.678Z,2.92
2022-11-23T22:57:32.658Z,2.40
2022-11-23T23:03:36.317Z,2.05
2022-11-23T23:09:40.014Z,2.15
2022-11-23T23:15:45.330Z,1.85
2022-11-23T23:21:48.709Z,2.50
2022-11-23T23:27:52.106Z,2.10
2022-11-23T23:33:57.063Z,2.63
2022-11-23T23:40:00.633Z,2.42
2022-11-23T23:46:05.376Z,2.35
2022-11-23T23:52:10.253Z,2.72
2022-11-23T23:58:14.274Z,1.98
